Time,TemperatureF,DewpointF,PressureIn,WindDirection,WindDirectionDegrees,WindSpeedMPH,WindSpeedGustMPH,Humidity,HourlyPrecipIn,Conditions,Clouds,dailyrainin,SoftwareType,DateUTC
2013-07-08 00:04:00,64.8,35.7,29.90,NE,39,0.0,0.0,34,0.00,CLR,SCT,0.00,WeatherDisplay:10.37,2013-07-08 07:04:00,
2013-07-08 00:09:00,64.6,36.3,29.90,West,277,3.5,3.6,35,0.00,CLR,SCT,0.00,WeatherDisplay:10.37,2013-07-08 07:09:00,
2013-07-08 00:14:00,64.2,36.7,29.93,West,274,6.9,6.9,36,0.00,CLR,SCT,0.00,WeatherDisplay:10.37,2013-07-08 07:14:00,
2013-07-08 00:19:00,64.0,37.2,29.93,West,265,5.8,5.8,37,0.00,CLR,SCT,0.00,WeatherDisplay:10.37,2013-07-08 07:19:00,
2013-07-08 00:25:00,63.9,37.7,29.93,WSW,253,5.8,5.8,38,0.00,CLR,SCT,0.00,WeatherDisplay:10.37,2013-07-08 07:25:00,
2013-07-08 00:30:00,63.9,37.1,29.93,North,0,4.6,4.6,37,0.00,CLR,SCT,0.00,WeatherDisplay:10.37,2013-07-08 07:30:00,
2013-07-08 00:35:00,63.5,37.4,29.93,North,0,3.5,3.5,38,0.00,CLR,SCT,0.00,WeatherDisplay:10.37,2013-07-08 07:35:00,
2013-07-08 00:40:00,63.0,36.9,29.93,North,0,0.0,0.0,38,0.00,CLR,SCT,0.00,WeatherDisplay:10.37,2013-07-08 07:40:00,
2013-07-08 00:45:00,62.6,37.3,29.93,North,0,3.5,3.5,39,0.00,CLR,SCT,0.00,WeatherDisplay:10.37,2013-07-08 07:45:00,
2013-07-08 00:50:00,62.2,37.6,29.93,North,0,3.5,3.6,40,0.00,CLR,SCT,0.00,WeatherDisplay:10.37,2013-07-08 07:50:00,
2013-07-08 00:55:00,61.9,37.3,29.93,WNW,290,3.5,3.5,40,0.00,CLR,SCT,0.00,WeatherDisplay:10.37,2013-07-08 07:55:00,
2013-07-08 01:00:00,61.7,36.5,29.93,North,0,3.5,3.5,39,0.00,CLR,SCT,0.00,WeatherDisplay:10.37,2013-07-08 08:00:00,
2013-07-08 01:06:00,61.5,35.7,29.93,North,0,3.5,3.5,38,0.00,CLR,SCT,0.00,WeatherDisplay:10.37,2013-07-08 08:06:00,
2013-07-08 01:11:00,61.2,35.3,29.93,North,0,2.3,0.0,38,0.00,CLR,SCT,0.00,WeatherDisplay:10.37,2013-07-08 08:11:00,
2013-07-08 01:16:00,60.6,35.5,29.93,North,0,3.5,3.5,39,0.00,CLR,SCT,0.00,WeatherDisplay:10.37,2013-07-08 08:16:00,
2013-07-08 01:21:00,60.3,35.2,29.93,North,0,3.5,3.5,39,0.00,CLR,SCT,0.00,WeatherDisplay:10.37,2013-07-08 08:21:00,
2013-07-08 01:27:00,60.1,35.0,29.93,North,0,3.5,3.5,39,0.00,CLR,SCT,0.00,WeatherDisplay:10.37,2013-07-08 08:27:00,
2013-07-08 01:32:00,59.9,34.9,29.93,North,0,3.5,3.6,39,0.00,CLR,SCT,0.00,WeatherDisplay:10.37,2013-07-08 08:32:00,
2013-07-08 01:37:00,59.7,34.7,29.93,North,0,2.3,0.0,39,0.00,CLR,SCT,0.00,WeatherDisplay:10.37,2013-07-08 08:37:00,
2013-07-08 01:42:00,59.2,34.2,29.93,North,0,0.0,0.0,39,0.00,CLR,SCT,0.00,WeatherDisplay:10.37,2013-07-08 08:42:00,
2013-07-08 01:47:00,58.8,35.2,29.93,North,0,0.0,0.0,41,0.00,CLR,SCT,0.00,WeatherDisplay:10.37,2013-07-08 08:47:00,
2013-07-08 01:52:00,58.5,36.6,29.93,North,0,0.0,0.0,44,0.00,CLR,SCT,0.00,WeatherDisplay:10.37,2013-07-08 08:52:00,
2013-07-08 01:58:00,58.1,35.7,29.93,North,0,3.5,3.5,43,0.00,CLR,SCT,0.00,WeatherDisplay:10.37,2013-07-08 08:58:00,
2013-07-08 02:03:00,57.9,35.5,29.93,North,0,0.0,0.0,43,0.00,CLR,SCT,0.00,WeatherDisplay:10.37,2013-07-08 09:03:00,
2013-07-08 02:08:00,57.2,36.0,29.93,North,0,0.0,0.0,45,0.00,CLR,SCT,0.00,WeatherDisplay:10.37,2013-07-08 09:08:00,
2013-07-08 02:13:00,56.8,36.3,29.93,North,0,3.5,3.5,46,0.00,CLR,SCT,0.00,WeatherDisplay:10.37,2013-07-08 09:13:00,
2013-07-08 02:18:00,56.7,36.6,29.93,North,0,3.5,3.5,47,0.00,CLR,SCT,0.00,WeatherDisplay:10.37,2013-07-08 09:18:00,
2013-07-08 02:23:00,56.3,36.3,29.93,North,0,2.3,2.3,47,0.00,CLR,SCT,0.00,WeatherDisplay:10.37,2013-07-08 09:23:00,
2013-07-08 02:28:00,56.1,36.1,29.93,North,0,2.3,0.0,47,0.00,CLR,SCT,0.00,WeatherDisplay:10.37,2013-07-08 09:28:00,
2013-07-08 02:33:00,55.9,36.0,29.93,North,0,3.6,4.0,47,0.00,CLR,SCT,0.00,WeatherDisplay:10.37,2013-07-08 09:33:00,
2013-07-08 02:38:00,55.8,35.8,29.93,North,0,0.0,0.0,47,0.00,CLR,SCT,0.00,WeatherDisplay:10.37,2013-07-08 09:38:00,
2013-07-08 02:43:00,55.4,34.9,29.93,North,0,0.0,0.0,46,0.00,CLR,SCT,0.00,WeatherDisplay:10.37,2013-07-08 09:43:00,
2013-07-08 02:49:00,55.0,35.2,29.93,NNE,22,3.5,3.5,47,0.00,CLR,SCT,0.00,WeatherDisplay:10.37,2013-07-08 09:49:00,
2013-07-08 02:54:00,54.9,35.0,29.93,NNE,22,2.3,2.3,47,0.00,CLR,SCT,0.00,WeatherDisplay:10.37,2013-07-08 09:54:00,
2013-07-08 02:59:00,54.7,34.8,29.93,NNE,22,3.5,3.5,47,0.00,CLR,SCT,0.00,WeatherDisplay:10.37,2013-07-08 09:59:00,
2013-07-08 03:04:00,54.3,35.0,29.93,NNE,22,3.5,3.5,48,0.00,CLR,SCT,0.00,WeatherDisplay:10.37,2013-07-08 10:04:00,
2013-07-08 03:09:00,54.0,34.7,29.93,NNE,22,0.0,0.0,48,0.00,CLR,SCT,0.00,WeatherDisplay:10.37,2013-07-08 10:09:00,
2013-07-08 03:14:00,53.6,34.4,29.96,NNE,22,0.0,0.0,48,0.00,CLR,SCT,0.00,WeatherDisplay:10.37,2013-07-08 10:14:00,
2013-07-08 03:19:00,53.6,34.4,29.96,NNE,22,0.0,0.0,48,0.00,CLR,SCT,0.00,WeatherDisplay:10.37,2013-07-08 10:19:00,
2013-07-08 03:25:00,53.6,34.4,29.96,NNE,22,0.0,0.0,48,0.00,CLR,SCT,0.00,WeatherDisplay:10.37,2013-07-08 10:25:00,
2013-07-08 03:30:00,53.6,34.9,29.96,NNE,22,0.0,0.0,49,0.00,CLR,SCT,0.00,WeatherDisplay:10.37,2013-07-08 10:30:00,
2013-07-08 03:35:00,53.4,35.2,29.96,NNE,22,0.0,0.0,50,0.00,CLR,SCT,0.00,WeatherDisplay:10.37,2013-07-08 10:35:00,
2013-07-08 03:40:00,53.1,34.4,29.96,NNE,22,0.0,0.0,49,0.00,CLR,SCT,0.00,WeatherDisplay:10.37,2013-07-08 10:40:00,
2013-07-08 03:45:00,52.7,34.6,29.96,SE,144,4.6,4.6,50,0.00,CLR,SCT,0.00,WeatherDisplay:10.37,2013-07-08 10:45:00,
2013-07-08 03:51:00,52.3,34.7,29.96,SE,144,3.6,3.6,51,0.00,CLR,SCT,0.00,WeatherDisplay:10.37,2013-07-08 10:51:00,
2013-07-08 03:56:00,51.8,35.2,29.96,SE,143,4.6,4.6,53,0.00,CLR,SCT,0.00,WeatherDisplay:10.37,2013-07-08 10:56:00,
2013-07-08 04:01:00,51.6,35.5,29.96,SE,144,4.6,4.6,54,0.00,CLR,SCT,0.00,WeatherDisplay:10.37,2013-07-08 11:01:00,
2013-07-08 04:06:00,51.3,37.8,29.96,SSE,159,4.6,4.6,60,0.00,CLR,SCT,0.00,WeatherDisplay:10.37,2013-07-08 11:06:00,
2013-07-08 04:11:00,51.3,38.3,29.96,SSE,159,4.6,4.6,61,0.00,CLR,SCT,0.00,WeatherDisplay:10.37,2013-07-08 11:11:00,
2013-07-08 04:16:00,51.1,38.1,29.96,SSE,159,4.6,4.6,61,0.00,CLR,SCT,0.00,WeatherDisplay:10.37,2013-07-08 11:16:00,
2013-07-08 04:21:00,50.9,37.5,29.96,SSE,153,4.6,4.6,60,0.00,CLR,SCT,0.00,WeatherDisplay:10.37,2013-07-08 11:21:00,
2013-07-08 04:26:00,50.7,37.3,29.96,SSE,148,4.6,4.6,60,0.00,CLR,SCT,0.00,WeatherDisplay:10.37,2013-07-08 11:26:00,
2013-07-08 04:32:00,50.7,37.3,29.96,SSE,148,0.0,0.0,60,0.00,CLR,SCT,0.00,WeatherDisplay:10.37,2013-07-08 11:32:00,
2013-07-08 04:37:00,50.5,36.7,29.96,SSE,148,0.0,0.0,59,0.00,CLR,SCT,0.00,WeatherDisplay:10.37,2013-07-08 11:37:00,
2013-07-08 04:42:00,50.4,36.6,29.96,SSE,148,0.0,0.0,59,0.00,CLR,SCT,0.00,WeatherDisplay:10.37,2013-07-08 11:42:00,
2013-07-08 04:47:00,50.4,35.7,29.96,SSE,148,0.0,0.0,57,0.00,CLR,SCT,0.00,WeatherDisplay:10.37,2013-07-08 11:47:00,
2013-07-08 04:53:00,50.2,35.5,29.96,SSE,148,0.0,0.0,57,0.00,CLR,SCT,0.00,WeatherDisplay:10.37,2013-07-08 11:53:00,
2013-07-08 04:58:00,50.0,35.8,29.96,SSE,148,0.0,0.0,58,0.00,CLR,SCT,0.00,WeatherDisplay:10.37,2013-07-08 11:58:00,
2013-07-08 05:03:00,49.8,36.5,29.96,SSE,148,0.0,0.0,60,0.00,CLR,SCT,0.00,WeatherDisplay:10.37,2013-07-08 12:03:00,
2013-07-08 05:08:00,49.6,37.1,29.96,SSE,148,0.0,0.0,62,0.00,CLR,SCT,0.00,WeatherDisplay:10.37,2013-07-08 12:08:00,
2013-07-08 05:13:00,49.6,37.6,29.96,SSE,148,0.0,0.0,63,0.00,CLR,SCT,0.00,WeatherDisplay:10.37,2013-07-08 12:13:00,
2013-07-08 05:18:00,49.8,38.5,29.96,SSE,148,0.0,0.0,65,0.00,CLR,SCT,0.00,WeatherDisplay:10.37,2013-07-08 12:18:00,
2013-07-08 05:23:00,49.8,38.9,29.96,SSE,148,2.3,0.0,66,0.00,CLR,SCT,0.00,WeatherDisplay:10.37,2013-07-08 12:23:00,
2013-07-08 05:29:00,49.6,37.6,29.96,SSE,148,0.0,0.0,63,0.00,CLR,SCT,0.00,WeatherDisplay:10.37,2013-07-08 12:29:00,
2013-07-08 05:34:00,49.3,36.8,29.96,SSE,148,0.0,0.0,62,0.00,CLR,SCT,0.00,WeatherDisplay:10.37,2013-07-08 12:34:00,
2013-07-08 05:39:00,48.9,36.9,29.96,SSE,148,0.0,0.0,63,0.00,CLR,SCT,0.00,WeatherDisplay:10.37,2013-07-08 12:39:00,
2013-07-08 05:44:00,48.9,37.7,29.96,SSE,148,0.0,0.0,65,0.00,CLR,SCT,0.00,WeatherDisplay:10.37,2013-07-08 12:44:00,
2013-07-08 05:49:00,48.7,37.5,29.96,SSE,148,0.0,0.0,65,0.00,CLR,SCT,0.00,WeatherDisplay:10.37,2013-07-08 12:49:00,
2013-07-08 05:54:00,48.6,36.9,29.96,SSE,148,0.0,0.0,64,0.00,CLR,SCT,0.00,WeatherDisplay:10.37,2013-07-08 12:54:00,
2013-07-08 05:59:00,48.4,36.8,29.96,SSE,148,0.0,0.0,64,0.00,CLR,SCT,0.00,WeatherDisplay:10.37,2013-07-08 12:59:00,
2013-07-08 06:04:00,48.2,36.6,29.96,SSE,148,0.0,0.0,64,0.00,CLR,SCT,0.00,WeatherDisplay:10.37,2013-07-08 13:04:00,
2013-07-08 06:09:00,47.7,36.9,29.96,SSE,148,0.0,0.0,66,0.00,CLR,SCT,0.00,WeatherDisplay:10.37,2013-07-08 13:09:00,
2013-07-08 06:15:00,47.3,36.5,29.96,SSE,148,0.0,0.0,66,0.00,CLR,SCT,0.00,WeatherDisplay:10.37,2013-07-08 13:15:00,
2013-07-08 06:20:00,47.3,36.9,29.96,SSE,148,0.0,0.0,67,0.00,CLR,SCT,0.00,WeatherDisplay:10.37,2013-07-08 13:20:00,
2013-07-08 06:25:00,47.3,36.5,29.96,SSE,148,0.0,0.0,66,0.00,CLR,SCT,0.00,WeatherDisplay:10.37,2013-07-08 13:25:00,
2013-07-08 06:30:00,47.1,36.3,29.96,SSE,148,0.0,0.0,66,0.00,CLR,SCT,0.00,WeatherDisplay:10.37,2013-07-08 13:30:00,
2013-07-08 06:36:00,47.1,36.7,29.96,SSE,148,0.0,0.0,67,0.00,CLR,SCT,0.00,WeatherDisplay:10.37,2013-07-08 13:36:00,
2013-07-08 06:41:00,47.3,36.5,29.99,SSE,148,0.0,0.0,66,0.00,CLR,SCT,0.00,WeatherDisplay:10.37,2013-07-08 13:41:00,
2013-07-08 06:46:00,47.3,36.5,29.99,SSE,148,0.0,0.0,66,0.00,CLR,SCT,0.00,WeatherDisplay:10.37,2013-07-08 13:46:00,
2013-07-08 06:51:00,47.1,36.7,29.99,SSE,148,0.0,0.0,67,0.00,CLR,SCT,0.00,WeatherDisplay:10.37,2013-07-08 13:51:00,
2013-07-08 06:56:00,47.1,37.5,29.99,SSE,148,0.0,0.0,69,0.00,CLR,SCT,0.00,WeatherDisplay:10.37,2013-07-08 13:56:00,
2013-07-08 07:01:00,47.3,38.0,29.99,SSE,148,0.0,0.0,70,0.00,CLR,SCT,0.00,WeatherDisplay:10.37,2013-07-08 14:01:00,
2013-07-08 07:06:00,47.5,38.9,29.99,SSE,148,0.0,0.0,72,0.00,CLR,SCT,0.00,WeatherDisplay:10.37,2013-07-08 14:06:00,
2013-07-08 07:11:00,48.0,39.4,29.99,SSE,148,0.0,0.0,72,0.00,CLR,SCT,0.00,WeatherDisplay:10.37,2013-07-08 14:11:00,
2013-07-08 07:16:00,48.6,39.2,29.99,SSE,148,0.0,0.0,70,0.00,CLR,SCT,0.00,WeatherDisplay:10.37,2013-07-08 14:16:00,
2013-07-08 07:21:00,49.3,39.9,29.99,SSE,148,0.0,0.0,70,0.00,CLR,SCT,0.00,WeatherDisplay:10.37,2013-07-08 14:21:00,
2013-07-08 07:27:00,50.2,39.3,29.99,SSE,148,0.0,0.0,66,0.00,CLR,SCT,0.00,WeatherDisplay:10.37,2013-07-08 14:27:00,
2013-07-08 07:32:00,51.3,39.1,29.99,SSE,148,0.0,0.0,63,0.00,CLR,SCT,0.00,WeatherDisplay:10.37,2013-07-08 14:32:00,
2013-07-08 07:37:00,52.0,36.8,29.99,SSE,148,0.0,0.0,56,0.00,CLR,SCT,0.00,WeatherDisplay:10.37,2013-07-08 14:37:00,
2013-07-08 07:43:00,53.1,35.4,29.99,SSE,148,0.0,0.0,51,0.00,CLR,SCT,0.00,WeatherDisplay:10.37,2013-07-08 14:43:00,
2013-07-08 07:48:00,54.0,35.2,29.99,SSE,148,0.0,0.0,49,0.00,CLR,SCT,0.00,WeatherDisplay:10.37,2013-07-08 14:48:00,
2013-07-08 07:53:00,54.5,34.7,29.99,SSE,149,0.0,0.0,47,0.00,CLR,SCT,0.00,WeatherDisplay:10.37,2013-07-08 14:53:00,
2013-07-08 07:58:00,55.2,35.3,29.99,SSE,149,0.0,0.0,47,0.00,CLR,SCT,0.00,WeatherDisplay:10.37,2013-07-08 14:58:00,
2013-07-08 08:03:00,55.9,35.4,29.99,SSE,149,0.0,0.0,46,0.00,CLR,SCT,0.00,WeatherDisplay:10.37,2013-07-08 15:03:00,
2013-07-08 08:09:00,56.7,35.5,29.99,SE,136,3.5,3.5,45,0.00,CLR,SCT,0.00,WeatherDisplay:10.37,2013-07-08 15:09:00,
2013-07-08 08:14:00,57.6,34.6,30.02,SE,136,0.0,0.0,42,0.00,CLR,SCT,0.00,WeatherDisplay:10.37,2013-07-08 15:14:00,
2013-07-08 08:19:00,58.5,34.2,30.02,SE,136,0.0,0.0,40,0.00,CLR,SCT,0.00,WeatherDisplay:10.37,2013-07-08 15:19:00,
2013-07-08 08:24:00,59.4,34.4,30.02,SE,126,2.3,0.0,39,0.00,CLR,SCT,0.00,WeatherDisplay:10.37,2013-07-08 15:24:00,
2013-07-08 08:29:00,60.3,34.5,30.02,SE,124,0.0,0.0,38,0.00,CLR,SCT,0.00,WeatherDisplay:10.37,2013-07-08 15:29:00,
2013-07-08 08:34:00,61.0,34.5,30.02,South,177,3.5,3.5,37,0.00,CLR,SCT,0.00,WeatherDisplay:10.37,2013-07-08 15:34:00,
2013-07-08 08:40:00,61.7,35.1,30.02,SE,146,3.5,3.5,37,0.00,CLR,SCT,0.00,WeatherDisplay:10.37,2013-07-08 15:40:00,
2013-07-08 08:45:00,62.6,35.3,30.02,East,97,3.5,3.5,36,0.00,CLR,SCT,0.00,WeatherDisplay:10.37,2013-07-08 15:45:00,
2013-07-08 08:50:00,63.7,36.2,30.02,SE,140,3.5,3.5,36,0.00,CLR,SCT,0.00,WeatherDisplay:10.37,2013-07-08 15:50:00,
2013-07-08 08:55:00,64.2,36.7,30.02,SSE,164,3.5,3.5,36,0.00,CLR,SCT,0.00,WeatherDisplay:10.37,2013-07-08 15:55:00,
2013-07-08 09:00:00,64.9,37.3,30.02,SSE,164,0.0,0.0,36,0.00,CLR,SCT,0.00,WeatherDisplay:10.37,2013-07-08 16:00:00,
2013-07-08 09:05:00,66.0,37.6,30.02,ESE,122,3.5,0.0,35,0.00,CLR,SCT,0.00,WeatherDisplay:10.37,2013-07-08 16:05:00,
2013-07-08 09:11:00,66.7,37.5,30.02,SE,127,2.3,0.0,34,0.00,CLR,SCT,0.00,WeatherDisplay:10.37,2013-07-08 16:11:00,
2013-07-08 09:16:00,67.1,37.8,30.02,South,169,3.5,0.0,34,0.00,CLR,SCT,0.00,WeatherDisplay:10.37,2013-07-08 16:16:00,
2013-07-08 09:21:00,67.6,38.3,30.02,South,175,3.5,3.5,34,0.00,CLR,SCT,0.00,WeatherDisplay:10.37,2013-07-08 16:21:00,
2013-07-08 09:26:00,68.4,38.1,30.02,SSE,160,0.0,0.0,33,0.00,CLR,SCT,0.00,WeatherDisplay:10.37,2013-07-08 16:26:00,
2013-07-08 09:32:00,69.3,38.9,30.02,WSW,238,4.6,4.6,33,0.00,CLR,SCT,0.00,WeatherDisplay:10.37,2013-07-08 16:32:00,
2013-07-08 09:37:00,70.2,39.7,30.02,SW,221,3.5,3.5,33,0.00,CLR,SCT,0.00,WeatherDisplay:10.37,2013-07-08 16:37:00,
2013-07-08 09:42:00,70.9,40.3,30.02,SSE,167,3.6,3.6,33,0.00,CLR,SCT,0.00,WeatherDisplay:10.37,2013-07-08 16:42:00,
2013-07-08 09:47:00,71.4,40.8,30.02,South,177,5.8,5.8,33,0.00,CLR,SCT,0.00,WeatherDisplay:10.37,2013-07-08 16:47:00,
2013-07-08 09:52:00,72.1,40.6,30.02,SSE,158,3.5,3.5,32,0.00,CLR,SCT,0.00,WeatherDisplay:10.37,2013-07-08 16:52:00,
2013-07-08 09:58:00,72.3,40.8,30.02,WSW,255,2.3,0.0,32,0.00,CLR,SCT,0.00,WeatherDisplay:10.37,2013-07-08 16:58:00,
2013-07-08 10:03:00,72.7,41.1,30.02,SSW,205,3.5,3.5,32,0.00,CLR,SCT,0.00,WeatherDisplay:10.37,2013-07-08 17:03:00,
2013-07-08 10:09:00,74.1,42.4,30.02,SSW,196,3.5,3.5,32,0.00,CLR,SCT,0.00,WeatherDisplay:10.37,2013-07-08 17:09:00,
2013-07-08 10:14:00,75.0,43.1,30.02,East,99,3.5,3.5,32,0.00,CLR,SCT,0.00,WeatherDisplay:10.37,2013-07-08 17:14:00,
2013-07-08 10:20:00,76.1,43.3,30.02,East,94,0.0,0.0,31,0.00,CLR,SCT,0.00,WeatherDisplay:10.37,2013-07-08 17:20:00,
2013-07-08 10:26:00,77.2,44.2,30.02,SE,143,3.5,3.5,31,0.00,CLR,SCT,0.00,WeatherDisplay:10.37,2013-07-08 17:26:00,
2013-07-08 10:31:00,78.1,45.0,30.02,North,0,3.5,0.0,31,0.00,CLR,SCT,0.00,WeatherDisplay:10.37,2013-07-08 17:31:00,
2013-07-08 10:36:00,78.3,45.1,30.02,SSW,193,5.8,5.8,31,0.00,CLR,SCT,0.00,WeatherDisplay:10.37,2013-07-08 17:36:00,
2013-07-08 10:41:00,79.2,45.0,30.02,ENE,66,5.8,5.8,30,0.00,CLR,SCT,0.00,WeatherDisplay:10.37,2013-07-08 17:41:00,
2013-07-08 10:46:00,80.2,46.0,30.02,NE,45,4.6,4.6,30,0.00,CLR,SCT,0.00,WeatherDisplay:10.37,2013-07-08 17:46:00,
2013-07-08 10:51:00,81.1,46.8,30.02,ENE,65,3.5,3.5,30,0.00,CLR,SCT,0.00,WeatherDisplay:10.37,2013-07-08 17:51:00,
2013-07-08 10:57:00,81.1,46.8,30.02,SSE,168,4.6,0.0,30,0.00,CLR,SCT,0.00,WeatherDisplay:10.37,2013-07-08 17:57:00,
2013-07-08 11:02:00,80.6,46.3,30.02,SSE,152,4.6,4.6,30,0.00,CLR,SCT,0.00,WeatherDisplay:10.37,2013-07-08 18:02:00,
2013-07-08 11:07:00,81.1,46.7,30.02,South,191,3.0,6.0,30,0.00,CLR,SCT,0.00,WeatherDisplay:10.37,2013-07-08 18:07:00,
2013-07-08 11:14:00,81.9,47.4,30.02,SSE,166,8.1,8.1,30,0.00,CLR,SCT,0.00,WeatherDisplay:10.37,2013-07-08 18:14:00,
2013-07-08 11:20:00,81.9,47.4,30.02,NE,49,4.6,4.6,30,0.00,CLR,SCT,0.00,WeatherDisplay:10.37,2013-07-08 18:20:00,
2013-07-08 11:25:00,83.5,47.9,29.99,East,98,6.9,6.9,29,0.00,CLR,SCT,0.00,WeatherDisplay:10.37,2013-07-08 18:25:00,
2013-07-08 11:30:00,84.0,48.3,29.99,North,0,8.1,8.1,29,0.00,CLR,SCT,0.00,WeatherDisplay:10.37,2013-07-08 18:30:00,
2013-07-08 11:35:00,84.2,48.5,29.99,North,0,5.8,5.8,29,0.00,CLR,SCT,0.00,WeatherDisplay:10.37,2013-07-08 18:35:00,
2013-07-08 11:42:00,85.1,49.3,30.02,East,84,3.5,3.5,29,0.00,CLR,SCT,0.00,WeatherDisplay:10.37,2013-07-08 18:42:00,
2013-07-08 11:48:00,86.0,50.0,30.02,East,84,4.9,4.9,29,0.00,CLR,SCT,0.00,WeatherDisplay:10.37,2013-07-08 18:48:00,
2013-07-08 11:53:00,86.4,50.3,30.02,ENE,63,5.8,5.8,29,0.00,CLR,SCT,0.00,WeatherDisplay:10.37,2013-07-08 18:53:00,
2013-07-08 11:58:00,86.5,50.5,29.99,North,0,3.5,3.5,29,0.00,CLR,SCT,0.00,WeatherDisplay:10.37,2013-07-08 18:58:00,
2013-07-08 12:04:00,87.6,51.4,29.99,NNE,21,5.8,5.8,29,0.00,CLR,SCT,0.00,WeatherDisplay:10.37,2013-07-08 19:04:00,
2013-07-08 12:09:00,87.6,51.4,29.99,NE,55,0.0,2.7,29,0.00,CLR,SCT,0.00,WeatherDisplay:10.37,2013-07-08 19:09:00,
2013-07-08 12:15:00,87.6,51.4,30.02,North,0,9.2,9.2,29,0.00,CLR,SCT,0.00,WeatherDisplay:10.37,2013-07-08 19:15:00,
2013-07-08 12:20:00,87.1,51.0,30.02,ENE,58,5.8,5.8,29,0.00,CLR,SCT,0.00,WeatherDisplay:10.37,2013-07-08 19:20:00,
2013-07-08 12:26:00,88.0,50.8,30.02,NE,44,9.2,9.2,28,0.00,CLR,SCT,0.00,WeatherDisplay:10.37,2013-07-08 19:26:00,
2013-07-08 12:31:00,88.5,51.3,30.02,NNE,16,9.2,9.2,28,0.00,CLR,SCT,0.00,WeatherDisplay:10.37,2013-07-08 19:31:00,
2013-07-08 12:36:00,88.5,51.3,30.02,NE,43,5.8,5.8,28,0.00,CLR,SCT,0.00,WeatherDisplay:10.37,2013-07-08 19:36:00,
2013-07-08 12:41:00,88.9,51.6,30.02,North,0,5.8,5.8,28,0.00,CLR,SCT,0.00,WeatherDisplay:10.37,2013-07-08 19:41:00,
2013-07-08 12:46:00,88.9,51.6,30.02,SW,225,3.5,3.5,28,0.00,CLR,SCT,0.00,WeatherDisplay:10.37,2013-07-08 19:46:00,
2013-07-08 12:51:00,87.6,51.4,30.02,SE,136,3.5,3.5,29,0.00,CLR,SCT,0.00,WeatherDisplay:10.37,2013-07-08 19:51:00,
2013-07-08 12:58:00,88.0,50.8,29.99,West,265,8.1,8.1,28,0.00,CLR,SCT,0.00,WeatherDisplay:10.37,2013-07-08 19:58:00,
2013-07-08 13:03:00,89.4,52.0,29.99,North,0,10.4,10.4,28,0.00,CLR,SCT,0.00,WeatherDisplay:10.37,2013-07-08 20:03:00,
2013-07-08 13:08:00,89.4,52.0,29.99,North,0,0.0,2.2,28,0.00,CLR,SCT,0.00,WeatherDisplay:10.37,2013-07-08 20:08:00,
2013-07-08 13:14:00,90.1,52.6,29.99,West,271,4.6,4.6,28,0.00,CLR,SCT,0.00,WeatherDisplay:10.37,2013-07-08 20:14:00,
2013-07-08 13:20:00,90.7,53.1,29.99,North,0,5.8,5.8,28,0.00,CLR,SCT,0.00,WeatherDisplay:10.37,2013-07-08 20:20:00,
2013-07-08 13:26:00,91.2,53.6,29.99,WSW,255,8.1,8.1,28,0.00,CLR,SCT,0.00,WeatherDisplay:10.37,2013-07-08 20:26:00,
2013-07-08 13:31:00,91.2,53.6,29.99,North,0,5.8,5.8,28,0.00,CLR,SCT,0.00,WeatherDisplay:10.37,2013-07-08 20:31:00,
2013-07-08 13:37:00,90.7,53.1,29.99,WSW,242,8.1,8.1,28,0.00,CLR,SCT,0.00,WeatherDisplay:10.37,2013-07-08 20:37:00,
2013-07-08 13:42:00,90.7,53.1,29.99,SW,236,6.9,6.9,28,0.00,CLR,SCT,0.00,WeatherDisplay:10.37,2013-07-08 20:42:00,
2013-07-08 13:47:00,90.1,52.6,29.99,ESE,116,4.6,4.6,28,0.00,CLR,SCT,0.00,WeatherDisplay:10.37,2013-07-08 20:47:00,
2013-07-08 13:53:00,89.8,52.3,29.99,West,278,8.1,8.1,28,0.00,CLR,SCT,0.00,WeatherDisplay:10.37,2013-07-08 20:53:00,
2013-07-08 14:00:00,90.3,52.8,29.99,West,263,5.8,5.8,28,0.00,CLR,SCT,0.00,WeatherDisplay:10.37,2013-07-08 21:00:00,
2013-07-08 14:05:00,90.5,52.9,29.99,North,0,3.5,3.5,28,0.00,CLR,SCT,0.00,WeatherDisplay:10.37,2013-07-08 21:05:00,
2013-07-08 14:10:00,90.9,53.3,29.99,North,0,5.8,5.8,28,0.00,CLR,SCT,0.00,WeatherDisplay:10.37,2013-07-08 21:10:00,
2013-07-08 14:16:00,91.2,53.6,29.99,North,0,8.1,8.1,28,0.00,CLR,SCT,0.00,WeatherDisplay:10.37,2013-07-08 21:16:00,
2013-07-08 14:22:00,90.7,53.1,29.99,NNE,33,4.5,0.0,28,0.00,CLR,SCT,0.00,WeatherDisplay:10.37,2013-07-08 21:22:00,
2013-07-08 14:27:00,90.7,53.1,29.99,North,0,10.4,10.4,28,0.00,CLR,SCT,0.00,WeatherDisplay:10.37,2013-07-08 21:27:00,
2013-07-08 14:32:00,90.9,53.3,29.99,North,0,9.2,9.2,28,0.00,CLR,SCT,0.00,WeatherDisplay:10.37,2013-07-08 21:32:00,
2013-07-08 14:38:00,91.2,53.6,29.99,North,0,5.8,5.8,28,0.00,CLR,SCT,0.00,WeatherDisplay:10.37,2013-07-08 21:38:00,
2013-07-08 14:43:00,91.6,52.9,29.99,NNE,16,3.5,4.9,27,0.00,CLR,SCT,0.00,WeatherDisplay:10.37,2013-07-08 21:43:00,
2013-07-08 14:49:00,91.6,52.9,29.99,West,264,3.5,3.5,27,0.00,CLR,SCT,0.00,WeatherDisplay:10.37,2013-07-08 21:49:00,
2013-07-08 14:55:00,91.9,53.2,29.99,West,270,5.8,0.0,27,0.00,CLR,SCT,0.00,WeatherDisplay:10.37,2013-07-08 21:55:00,
2013-07-08 15:01:00,92.1,53.3,29.99,ENE,78,9.2,9.2,27,0.00,CLR,SCT,0.00,WeatherDisplay:10.37,2013-07-08 22:01:00,
2013-07-08 15:06:00,92.1,53.3,29.99,North,0,5.8,5.8,27,0.00,CLR,SCT,0.00,WeatherDisplay:10.37,2013-07-08 22:06:00,
2013-07-08 15:12:00,90.3,52.8,29.99,SSW,195,5.8,6.3,28,0.00,CLR,SCT,0.00,WeatherDisplay:10.37,2013-07-08 22:12:00,
2013-07-08 15:17:00,91.2,53.6,29.99,SE,132,5.8,5.8,28,0.00,CLR,SCT,0.00,WeatherDisplay:10.37,2013-07-08 22:17:00,
2013-07-08 15:24:00,91.6,52.9,29.99,East,81,12.7,12.7,27,0.00,CLR,SCT,0.00,WeatherDisplay:10.37,2013-07-08 22:24:00,
2013-07-08 15:29:00,91.2,53.6,29.99,NE,37,12.7,12.7,28,0.00,CLR,SCT,0.00,WeatherDisplay:10.37,2013-07-08 22:29:00,
2013-07-08 15:35:00,92.1,53.3,29.99,North,8,8.1,8.1,27,0.00,CLR,SCT,0.00,WeatherDisplay:10.37,2013-07-08 22:35:00,
2013-07-08 15:41:00,91.9,53.2,29.99,ENE,67,9.2,9.2,27,0.00,CLR,SCT,0.00,WeatherDisplay:10.37,2013-07-08 22:41:00,
2013-07-08 15:47:00,91.6,52.9,29.99,NNE,26,15.0,15.0,27,0.00,CLR,SCT,0.00,WeatherDisplay:10.37,2013-07-08 22:47:00,
2013-07-08 15:52:00,91.8,53.0,29.99,NNE,18,8.1,8.1,27,0.00,CLR,SCT,0.00,WeatherDisplay:10.37,2013-07-08 22:52:00,
2013-07-08 15:57:00,92.1,53.3,29.99,East,85,8.1,8.1,27,0.00,CLR,SCT,0.00,WeatherDisplay:10.37,2013-07-08 22:57:00,
2013-07-08 16:03:00,91.8,53.0,29.99,East,93,10.4,10.4,27,0.00,CLR,SCT,0.00,WeatherDisplay:10.37,2013-07-08 23:03:00,
2013-07-08 16:08:00,91.8,53.0,29.99,ENE,69,8.3,8.3,27,0.00,CLR,SCT,0.00,WeatherDisplay:10.37,2013-07-08 23:08:00,
2013-07-08 16:13:00,91.8,53.0,29.99,NNE,12,12.7,12.7,27,0.00,CLR,SCT,0.00,WeatherDisplay:10.37,2013-07-08 23:13:00,
2013-07-08 16:18:00,91.4,52.7,29.99,NE,53,10.4,10.4,27,0.00,CLR,SCT,0.00,WeatherDisplay:10.37,2013-07-08 23:18:00,
2013-07-08 16:23:00,91.4,52.7,29.99,NE,51,13.8,13.8,27,0.00,CLR,SCT,0.00,WeatherDisplay:10.37,2013-07-08 23:23:00,
2013-07-08 16:29:00,91.2,53.6,29.99,ENE,61,10.4,10.4,28,0.00,CLR,SCT,0.00,WeatherDisplay:10.37,2013-07-08 23:29:00,
2013-07-08 16:34:00,91.2,53.6,29.99,East,97,8.1,8.1,28,0.00,CLR,SCT,0.00,WeatherDisplay:10.37,2013-07-08 23:34:00,
2013-07-08 16:40:00,91.4,52.7,29.99,ENE,65,10.4,10.4,27,0.00,CLR,SCT,0.00,WeatherDisplay:10.37,2013-07-08 23:40:00,
2013-07-08 16:45:00,91.8,53.0,29.99,NNE,31,8.1,8.1,27,0.00,CLR,SCT,0.00,WeatherDisplay:10.37,2013-07-08 23:45:00,
2013-07-08 16:50:00,92.1,53.3,29.99,NE,37,15.0,15.0,27,0.00,CLR,SCT,0.00,WeatherDisplay:10.37,2013-07-08 23:50:00,
2013-07-08 16:56:00,91.0,53.4,29.99,ENE,71,11.5,11.5,28,0.00,CLR,SCT,0.00,WeatherDisplay:10.37,2013-07-08 23:56:00,
2013-07-08 17:01:00,91.2,53.6,29.99,NNE,29,6.3,6.3,28,0.00,CLR,SCT,0.00,WeatherDisplay:10.37,2013-07-09 00:01:00,
2013-07-08 17:06:00,90.9,53.3,29.99,North,0,11.5,11.5,28,0.00,CLR,SCT,0.00,WeatherDisplay:10.37,2013-07-09 00:06:00,
2013-07-08 17:12:00,91.2,53.6,29.96,North,0,8.1,8.1,28,0.00,CLR,SCT,0.00,WeatherDisplay:10.37,2013-07-09 00:12:00,
2013-07-08 17:17:00,91.8,53.0,29.96,NNE,15,6.9,6.9,27,0.00,CLR,SCT,0.00,WeatherDisplay:10.37,2013-07-09 00:17:00,
2013-07-08 17:22:00,91.9,53.2,29.96,North,0,8.1,8.1,27,0.00,CLR,SCT,0.00,WeatherDisplay:10.37,2013-07-09 00:22:00,
2013-07-08 17:27:00,91.6,52.9,29.96,North,0,3.5,3.5,27,0.00,CLR,SCT,0.00,WeatherDisplay:10.37,2013-07-09 00:27:00,
2013-07-08 17:34:00,91.4,52.7,29.96,North,0,12.7,12.7,27,0.00,CLR,SCT,0.00,WeatherDisplay:10.37,2013-07-09 00:34:00,
2013-07-08 17:39:00,91.4,52.7,29.96,North,0,11.5,11.5,27,0.00,CLR,SCT,0.00,WeatherDisplay:10.37,2013-07-09 00:39:00,
2013-07-08 17:44:00,91.0,53.4,29.96,North,0,5.8,5.8,28,0.00,CLR,SCT,0.00,WeatherDisplay:10.37,2013-07-09 00:44:00,
2013-07-08 17:49:00,91.0,53.4,29.96,NNE,24,8.1,8.1,28,0.00,CLR,SCT,0.00,WeatherDisplay:10.37,2013-07-09 00:49:00,
2013-07-08 17:55:00,90.7,53.1,29.96,North,0,10.4,10.4,28,0.00,CLR,SCT,0.00,WeatherDisplay:10.37,2013-07-09 00:55:00,
2013-07-08 18:00:00,91.0,53.4,29.96,North,0,9.2,9.2,28,0.00,CLR,SCT,0.00,WeatherDisplay:10.37,2013-07-09 01:00:00,
2013-07-08 18:06:00,91.0,53.4,29.96,North,0,9.2,9.2,28,0.00,CLR,SCT,0.00,WeatherDisplay:10.37,2013-07-09 01:06:00,
2013-07-08 18:12:00,90.7,53.1,29.96,North,0,8.1,8.1,28,0.00,CLR,SCT,0.00,WeatherDisplay:10.37,2013-07-09 01:12:00,
2013-07-08 18:18:00,90.1,52.6,29.96,North,0,9.2,9.2,28,0.00,CLR,SCT,0.00,WeatherDisplay:10.37,2013-07-09 01:18:00,
2013-07-08 18:23:00,90.0,52.5,29.96,North,0,3.6,3.6,28,0.00,CLR,SCT,0.00,WeatherDisplay:10.37,2013-07-09 01:23:00,
2013-07-08 18:29:00,89.8,52.3,29.96,North,0,15.0,15.0,28,0.00,CLR,SCT,0.00,WeatherDisplay:10.37,2013-07-09 01:29:00,
2013-07-08 18:34:00,89.8,52.3,29.96,North,0,6.9,6.9,28,0.00,CLR,SCT,0.00,WeatherDisplay:10.37,2013-07-09 01:34:00,
2013-07-08 18:39:00,90.0,52.5,29.96,NNE,15,10.4,10.4,28,0.00,CLR,SCT,0.00,WeatherDisplay:10.37,2013-07-09 01:39:00,
2013-07-08 18:45:00,89.6,52.2,29.96,North,0,10.5,10.5,28,0.00,CLR,SCT,0.00,WeatherDisplay:10.37,2013-07-09 01:45:00,
2013-07-08 18:50:00,89.1,51.7,29.96,North,0,8.7,8.7,28,0.00,CLR,SCT,0.00,WeatherDisplay:10.37,2013-07-09 01:50:00,
2013-07-08 18:55:00,88.7,51.4,29.96,North,0,12.7,12.7,28,0.00,CLR,SCT,0.00,WeatherDisplay:10.37,2013-07-09 01:55:00,
2013-07-08 19:00:00,88.5,51.3,29.96,North,0,8.1,8.1,28,0.00,CLR,SCT,0.00,WeatherDisplay:10.37,2013-07-09 02:00:00,
2013-07-08 19:06:00,88.3,51.1,29.96,North,0,5.8,5.8,28,0.00,CLR,SCT,0.00,WeatherDisplay:10.37,2013-07-09 02:06:00,
2013-07-08 19:11:00,87.8,50.6,29.96,North,0,9.2,9.2,28,0.00,CLR,SCT,0.00,WeatherDisplay:10.37,2013-07-09 02:11:00,
2013-07-08 19:16:00,87.6,51.4,29.96,North,0,12.7,12.7,29,0.00,CLR,SCT,0.00,WeatherDisplay:10.37,2013-07-09 02:16:00,
2013-07-08 19:21:00,87.1,51.0,29.96,North,0,10.4,10.4,29,0.00,CLR,SCT,0.00,WeatherDisplay:10.37,2013-07-09 02:21:00,
2013-07-08 19:27:00,86.9,50.8,29.96,North,0,11.5,11.5,29,0.00,CLR,SCT,0.00,WeatherDisplay:10.37,2013-07-09 02:27:00,
2013-07-08 19:32:00,86.4,50.3,29.96,North,0,15.0,15.0,29,0.00,CLR,SCT,0.00,WeatherDisplay:10.37,2013-07-09 02:32:00,
2013-07-08 19:37:00,86.0,50.0,29.96,North,0,9.2,9.2,29,0.00,CLR,SCT,0.00,WeatherDisplay:10.37,2013-07-09 02:37:00,
2013-07-08 19:42:00,85.6,49.7,29.96,North,0,11.5,11.5,29,0.00,CLR,SCT,0.00,WeatherDisplay:10.37,2013-07-09 02:42:00,
2013-07-08 19:48:00,85.3,49.4,29.96,North,0,8.1,8.1,29,0.00,CLR,SCT,0.00,WeatherDisplay:10.37,2013-07-09 02:48:00,
2013-07-08 19:54:00,84.9,49.1,29.96,NNE,16,5.8,5.8,29,0.00,CLR,SCT,0.00,WeatherDisplay:10.37,2013-07-09 02:54:00,
2013-07-08 20:00:00,84.9,49.1,29.96,North,0,8.1,8.1,29,0.00,CLR,SCT,0.00,WeatherDisplay:10.37,2013-07-09 03:00:00,
2013-07-08 20:05:00,84.7,49.0,29.96,North,0,12.7,12.7,29,0.00,CLR,SCT,0.00,WeatherDisplay:10.37,2013-07-09 03:05:00,
2013-07-08 20:10:00,84.2,48.5,29.96,North,0,5.8,5.8,29,0.00,CLR,SCT,0.00,WeatherDisplay:10.37,2013-07-09 03:10:00,
2013-07-08 20:15:00,84.0,48.3,29.96,NNE,14,9.2,9.2,29,0.00,CLR,SCT,0.00,WeatherDisplay:10.37,2013-07-09 03:15:00,
2013-07-08 20:20:00,83.7,48.0,29.96,North,0,12.7,12.7,29,0.00,CLR,SCT,0.00,WeatherDisplay:10.37,2013-07-09 03:20:00,
2013-07-08 20:25:00,83.5,47.9,29.99,NNE,17,6.9,6.9,29,0.00,CLR,SCT,0.00,WeatherDisplay:10.37,2013-07-09 03:25:00,
2013-07-08 20:31:00,83.3,47.7,29.99,North,0,8.1,8.1,29,0.00,CLR,SCT,0.00,WeatherDisplay:10.37,2013-07-09 03:31:00,
2013-07-08 20:37:00,83.1,47.6,29.99,North,2,6.0,10.0,29,0.00,CLR,SCT,0.00,WeatherDisplay:10.37,2013-07-09 03:37:00,
2013-07-08 20:44:00,82.6,47.1,29.99,North,0,10.4,10.4,29,0.00,CLR,SCT,0.00,WeatherDisplay:10.37,2013-07-09 03:44:00,
2013-07-08 20:50:00,82.2,47.7,29.99,North,0,6.9,6.9,30,0.00,CLR,SCT,0.00,WeatherDisplay:10.37,2013-07-09 03:50:00,
2013-07-08 20:56:00,81.7,47.2,29.99,North,0,9.2,9.2,30,0.00,CLR,SCT,0.00,WeatherDisplay:10.37,2013-07-09 03:56:00,
2013-07-08 21:01:00,81.3,46.9,29.99,North,0,10.1,10.1,30,0.00,CLR,SCT,0.00,WeatherDisplay:10.37,2013-07-09 04:01:00,
2013-07-08 21:02:00,81.1,46.8,29.99,NNE,24,10.4,10.4,30,0.00,CLR,SCT,0.00,WeatherDisplay:10.37,2013-07-09 04:02:00,
2013-07-08 21:04:00,80.8,46.4,29.99,North,0,11.5,11.5,30,0.00,CLR,SCT,0.00,WeatherDisplay:10.37,2013-07-09 04:04:00,
2013-07-08 21:09:00,80.4,46.1,29.99,North,0,9.2,9.2,30,0.00,CLR,SCT,0.00,WeatherDisplay:10.37,2013-07-09 04:09:00,
2013-07-08 21:15:00,80.1,45.8,29.99,North,0,10.4,10.4,30,0.00,CLR,SCT,0.00,WeatherDisplay:10.37,2013-07-09 04:15:00,
2013-07-08 21:20:00,79.5,45.4,29.99,North,0,9.2,9.2,30,0.00,CLR,SCT,0.00,WeatherDisplay:10.37,2013-07-09 04:20:00,
2013-07-08 21:25:00,79.2,45.0,29.99,North,0,10.4,10.4,30,0.00,CLR,SCT,0.00,WeatherDisplay:10.37,2013-07-09 04:25:00,
2013-07-08 21:30:00,78.8,44.7,29.99,North,0,8.1,8.1,30,0.00,CLR,SCT,0.00,WeatherDisplay:10.37,2013-07-09 04:30:00,
2013-07-08 21:35:00,78.4,45.3,29.99,North,0,8.1,8.1,31,0.00,CLR,SCT,0.00,WeatherDisplay:10.37,2013-07-09 04:35:00,
2013-07-08 21:40:00,77.9,44.8,29.99,North,0,8.1,8.1,31,0.00,CLR,SCT,0.00,WeatherDisplay:10.37,2013-07-09 04:40:00,
2013-07-08 21:46:00,77.5,44.5,29.99,North,0,9.2,9.2,31,0.00,CLR,SCT,0.00,WeatherDisplay:10.37,2013-07-09 04:46:00,
2013-07-08 21:51:00,77.4,44.4,29.99,North,0,9.2,9.2,31,0.00,CLR,SCT,0.00,WeatherDisplay:10.37,2013-07-09 04:51:00,
2013-07-08 21:56:00,76.8,43.9,29.99,North,0,8.1,8.1,31,0.00,CLR,SCT,0.00,WeatherDisplay:10.37,2013-07-09 04:56:00,
2013-07-08 22:01:00,76.6,43.7,29.99,North,0,8.1,8.1,31,0.00,CLR,SCT,0.00,WeatherDisplay:10.37,2013-07-09 05:01:00,
2013-07-08 22:06:00,76.3,43.4,29.99,North,0,9.2,9.2,31,0.00,CLR,SCT,0.00,WeatherDisplay:10.37,2013-07-09 05:06:00,
2013-07-08 22:11:00,75.9,43.1,30.02,North,0,8.1,8.1,31,0.00,CLR,SCT,0.00,WeatherDisplay:10.37,2013-07-09 05:11:00,
2013-07-08 22:17:00,75.6,42.8,30.02,North,0,11.5,11.5,31,0.00,CLR,SCT,0.00,WeatherDisplay:10.37,2013-07-09 05:17:00,
2013-07-08 22:22:00,75.2,42.5,30.02,NNE,16,8.1,8.1,31,0.00,CLR,SCT,0.00,WeatherDisplay:10.37,2013-07-09 05:22:00,
2013-07-08 22:27:00,75.0,43.1,30.02,North,0,5.8,5.8,32,0.00,CLR,SCT,0.00,WeatherDisplay:10.37,2013-07-09 05:27:00,
2013-07-08 22:32:00,74.7,42.8,30.02,North,0,8.1,8.1,32,0.00,CLR,SCT,0.00,WeatherDisplay:10.37,2013-07-09 05:32:00,
2013-07-08 22:37:00,74.3,42.5,30.02,North,0,8.0,8.0,32,0.00,CLR,SCT,0.00,WeatherDisplay:10.37,2013-07-09 05:37:00,
2013-07-08 22:42:00,73.9,42.2,30.02,North,0,5.8,5.8,32,0.00,CLR,SCT,0.00,WeatherDisplay:10.37,2013-07-09 05:42:00,
2013-07-08 22:47:00,73.6,41.9,30.02,North,0,8.1,8.1,32,0.00,CLR,SCT,0.00,WeatherDisplay:10.37,2013-07-09 05:47:00,
2013-07-08 22:52:00,73.4,41.7,30.02,North,0,5.8,5.8,32,0.00,CLR,SCT,0.00,WeatherDisplay:10.37,2013-07-09 05:52:00,
2013-07-08 22:58:00,73.0,41.4,30.02,North,0,8.1,8.1,32,0.00,CLR,SCT,0.00,WeatherDisplay:10.37,2013-07-09 05:58:00,
2013-07-08 23:03:00,72.9,41.3,30.02,North,0,10.4,10.4,32,0.00,CLR,SCT,0.00,WeatherDisplay:10.37,2013-07-09 06:03:00,
2013-07-08 23:08:00,72.7,41.1,30.02,North,0,6.9,6.9,32,0.00,CLR,SCT,0.00,WeatherDisplay:10.37,2013-07-09 06:08:00,
2013-07-08 23:13:00,72.3,40.8,30.02,North,0,8.1,8.1,32,0.00,CLR,SCT,0.00,WeatherDisplay:10.37,2013-07-09 06:13:00,
2013-07-08 23:18:00,72.0,40.5,30.02,North,0,8.1,8.1,32,0.00,CLR,SCT,0.00,WeatherDisplay:10.37,2013-07-09 06:18:00,
2013-07-08 23:23:00,71.6,40.2,30.02,North,0,9.2,9.2,32,0.00,CLR,SCT,0.00,WeatherDisplay:10.37,2013-07-09 06:23:00,
2013-07-08 23:28:00,71.4,40.8,30.02,North,0,8.1,8.1,33,0.00,CLR,SCT,0.00,WeatherDisplay:10.37,2013-07-09 06:28:00,
2013-07-08 23:33:00,71.1,40.5,30.02,North,0,5.8,5.8,33,0.00,CLR,SCT,0.00,WeatherDisplay:10.37,2013-07-09 06:33:00,
2013-07-08 23:38:00,70.7,40.2,30.02,North,0,8.1,8.1,33,0.00,CLR,SCT,0.00,WeatherDisplay:10.37,2013-07-09 06:38:00,
2013-07-08 23:43:00,70.3,39.9,30.02,North,0,9.2,9.2,33,0.00,CLR,SCT,0.00,WeatherDisplay:10.37,2013-07-09 06:43:00,
2013-07-08 23:48:00,70.0,39.5,30.02,North,0,5.8,5.8,33,0.00,CLR,SCT,0.00,WeatherDisplay:10.37,2013-07-09 06:48:00,
2013-07-08 23:54:00,69.6,39.2,30.02,North,0,4.0,4.0,33,0.00,CLR,SCT,0.00,WeatherDisplay:10.37,2013-07-09 06:54:00,
2013-07-08 23:59:00,69.3,38.9,30.02,North,0,4.6,4.6,33,0.00,CLR,SCT,0.00,WeatherDisplay:10.37,2013-07-09 06:59:00,